Stations météo

réclame
Mon MeteoGroup
Paganella, Italie (16022): Température de l'air & dewpoint: 16.06.2018 19:00:00 - 22.06.2018 19:00:00 (CEST)Paganella, Italie (16022): Vitesse du vent: 16.06.2018 19:00:00 - 22.06.2018 19:00:00 (CEST)Paganella, Italie (16022): Direction du vent: 16.06.2018 19:00:00 - 22.06.2018 19:00:00 (CEST)Paganella, Italie (16022): visibility: 16.06.2018 19:00:00 - 22.06.2018 19:00:00 (CEST)Paganella, Italie (16022): Ensoleillement: 16.06.2018 19:00:00 - 22.06.2018 19:00:00 (CEST)
Date & Time tt [°C] td [°C] ff [km/h] ff [knt] dd vv [km] sd [min]
22.06.2018 19:00:00 9,3 6,9 11 6 NNE 2,0 12
22.06.2018 18:00:00 9,0 5,4 4 2 N 50 18
22.06.2018 17:00:00 9,6 2,9 21 11 NE 50 36
22.06.2018 16:00:00 10,0 4,6 15 8 NNE 60 12
22.06.2018 15:00:00 10,0 4,0 13 7 NNE 70 0
22.06.2018 14:00:00 9,0 3,0 4 2 N 70 0
22.06.2018 13:00:00 10,0 2,6 4 2 N 50 30
22.06.2018 12:00:00 10,0 2,6 13 7 NE 50 48
22.06.2018 11:00:00 9,0 3,6 11 6 NNE 50 48
22.06.2018 10:00:00 7,7 3,6 21 11 NNE 60 48
22.06.2018 09:00:00 7,2 4,5 18 10 NNE 0,9 0
22.06.2018 08:00:00 7,0 5,8 18 10 NNE 0,6 0
22.06.2018 07:00:00 7,9 7,9 22 12 NNE - 0
22.06.2018 06:00:00 7,6 7,6 11 6 NNE - 0
22.06.2018 05:00:00 8,3 8,2 9 5 NE - -
22.06.2018 04:00:00 8,8 8,5 0 0 N - -
22.06.2018 03:00:00 9,4 9,2 9 5 ESE - -
22.06.2018 02:00:00 9,8 9,5 15 8 SW - -
22.06.2018 01:00:00 10,0 9,9 16 9 SW - -
22.06.2018 00:00:00 10,2 10,0 15 8 SW - -
21.06.2018 23:00:00 11,8 10,9 15 8 SSW - -
21.06.2018 22:00:00 11,0 8,4 4 2 N 6 0
21.06.2018 21:00:00 11,8 7,7 9 5 E 4,0 0
21.06.2018 20:00:00 12,5 11,2 4 2 SSW 0,4 0
21.06.2018 19:00:00 12,8 9,4 0 0 N 25 0
21.06.2018 18:00:00 12,3 5,9 11 6 WSW 25 0
21.06.2018 17:00:00 12,2 7,3 9 5 SW 30 0
21.06.2018 16:00:00 13,5 11,2 5 3 SSW 25 0
21.06.2018 15:00:00 13,0 10,5 4 2 N 0,4 0
21.06.2018 14:00:00 17,2 10,3 4 2 N 30 42
21.06.2018 13:00:00 14,8 10,6 5 3 SSE 20 60
21.06.2018 12:00:00 13,5 9,7 5 3 SSE 20 48
21.06.2018 11:00:00 13,1 10,8 0 0 N 0,8 12
21.06.2018 10:00:00 13,4 9,8 4 2 N 0,8 36
21.06.2018 09:00:00 13,0 8,7 4 2 N 0,6 36
21.06.2018 08:00:00 11,4 5,5 11 6 SW 20 60
21.06.2018 07:00:00 10,0 4,8 4 2 SSW 20 60
21.06.2018 06:00:00 9,0 5,7 11 6 SW 20 0
21.06.2018 05:00:00 8,8 6,2 11 6 SW 20 -
21.06.2018 04:00:00 9,0 7,1 11 6 SSW 30 -
21.06.2018 03:00:00 9,4 6,1 9 5 SSW 30 -
21.06.2018 02:00:00 10,0 8,1 11 6 SSW 30 -
21.06.2018 01:00:00 10,0 7,6 11 6 S 25 -
21.06.2018 00:00:00 9,9 8,7 13 7 S 30 -
20.06.2018 23:00:00 10,0 8,1 15 8 SSW 30 -
20.06.2018 22:00:00 10,4 8,3 11 6 NNE 35 0
20.06.2018 21:00:00 11,1 7,2 13 7 SSW 40 0
20.06.2018 20:00:00 13,8 8,0 15 8 SW 20 48
20.06.2018 19:00:00 14,4 8,4 13 7 SW 20 60
20.06.2018 18:00:00 15,0 9,6 13 7 SSW 30 60
20.06.2018 17:00:00 15,4 9,5 80 43 SSE 30 60
20.06.2018 16:00:00 14,8 10,2 11 6 S 20 60
20.06.2018 15:00:00 14,8 10,2 9 5 S 20 -
20.06.2018 14:00:00 13,0 8,5 9 5 SSE 20 60
20.06.2018 13:00:00 13,2 8,7 4 2 N 15 60
20.06.2018 12:00:00 12,3 9,7 8 4 SSW 20 18
20.06.2018 11:00:00 11,8 9,2 15 8 SSW 0,8 0
20.06.2018 10:00:00 11,2 8,6 8 4 SE 0,8 12
20.06.2018 09:00:00 10,0 8,1 11 6 SSW 0,8 18
20.06.2018 08:00:00 9,1 9,1 9 5 SSW 0,4 0
20.06.2018 07:00:00 8,6 8,5 11 6 SSW 0,2 0
20.06.2018 06:00:00 8,3 8,3 11 6 SSW 15 0
20.06.2018 05:00:00 8,4 7,7 11 6 S 18 -
20.06.2018 04:00:00 8,8 8,2 0 0 N 15 -
20.06.2018 03:00:00 9,2 7,5 8 4 SSE 20 -
20.06.2018 02:00:00 9,4 7,5 8 4 S 20 -
20.06.2018 01:00:00 9,8 8,2 9 5 S 20 -
20.06.2018 00:00:00 10,0 8,1 13 7 S 15 -
19.06.2018 23:00:00 11,4 7,7 9 5 NNE 20 -
19.06.2018 22:00:00 12,2 5,6 0 0 N 70 0
19.06.2018 21:00:00 14,0 6,8 0 0 N 30 36
19.06.2018 20:00:00 14,8 5,1 5 3 N 50 60
19.06.2018 19:00:00 13,8 4,1 9 5 NNE 70 60
19.06.2018 18:00:00 13,6 3,4 9 5 ENE 50 60
19.06.2018 17:00:00 13,7 3,8 8 4 NE 70 60
19.06.2018 16:00:00 13,8 3,8 9 5 NE 70 60
19.06.2018 15:00:00 13,1 3,2 9 5 NNE 70 60
19.06.2018 14:00:00 12,6 4,6 8 4 NNE 70 60
19.06.2018 13:00:00 12,2 4,9 9 5 NNE 70 60
19.06.2018 12:00:00 11,0 3,5 9 5 N 70 60
19.06.2018 11:00:00 10,0 2,6 11 6 NNW 70 60
19.06.2018 10:00:00 9,2 2,5 18 10 N 50 60
19.06.2018 09:00:00 8,8 1,9 22 12 N 50 60
19.06.2018 08:00:00 9,0 2,1 18 10 N 50 60
19.06.2018 07:00:00 7,8 2,3 18 10 N 50 24
19.06.2018 06:00:00 7,2 1,7 15 8 N 50 0
19.06.2018 05:00:00 7,0 1,9 16 9 N 50 -
19.06.2018 04:00:00 7,0 2,3 13 7 N 50 -
19.06.2018 03:00:00 7,6 2,5 15 8 N 50 -
19.06.2018 02:00:00 7,6 2,3 11 6 N 50 -
19.06.2018 01:00:00 8,2 2,7 11 6 N 50 -
19.06.2018 00:00:00 8,2 2,9 13 7 N 50 -
18.06.2018 23:00:00 9,0 5,2 15 8 N 50 -
18.06.2018 22:00:00 10,0 5,2 15 8 N 50 0
18.06.2018 21:00:00 10,2 4,4 13 7 N 50 0
18.06.2018 20:00:00 11,2 3,0 13 7 N 50 36
18.06.2018 19:00:00 11,6 2,4 11 6 N 50 36
18.06.2018 18:00:00 12,2 3,2 13 7 N 50 36
18.06.2018 17:00:00 13,0 4,2 11 6 NNE 50 60
18.06.2018 16:00:00 12,6 4,1 9 5 N 50 36
18.06.2018 15:00:00 12,6 5,5 9 5 N 50 24
18.06.2018 14:00:00 11,8 5,2 11 6 N 50 60
18.06.2018 13:00:00 11,2 5,5 11 6 N 50 60
18.06.2018 12:00:00 10,6 5,4 13 7 N 50 60
18.06.2018 11:00:00 9,8 4,4 13 7 N 50 60
18.06.2018 10:00:00 8,6 3,0 15 8 N 40 60
18.06.2018 09:00:00 8,0 4,0 15 8 N 50 60
18.06.2018 08:00:00 6,8 4,0 18 10 N 40 36
18.06.2018 07:00:00 6,4 4,6 15 8 N 30 0
18.06.2018 06:00:00 6,6 6,0 13 7 N 20 0
18.06.2018 05:00:00 7,0 7,0 11 6 N 0,7 -
18.06.2018 04:00:00 7,2 7,2 8 4 S 0,3 -
18.06.2018 03:00:00 9,0 7,1 4 2 S 0,3 -
18.06.2018 02:00:00 9,0 8,7 8 4 SSW 0,3 -
18.06.2018 01:00:00 9,4 7,8 11 6 SSW 10 -
18.06.2018 00:00:00 9,6 8,0 8 4 SSW 10 -
17.06.2018 23:00:00 10,6 6,4 8 4 SSW 40 -
17.06.2018 22:00:00 11,8 0,9 9 5 N 40 0
17.06.2018 21:00:00 12,2 2,4 0 0 N 40 24
17.06.2018 20:00:00 13,6 3,9 5 3 N 40 60
17.06.2018 19:00:00 13,4 3,2 9 5 N 40 60
17.06.2018 18:00:00 13,8 3,0 8 4 SSW 40 60
17.06.2018 17:00:00 13,6 2,2 13 7 SSW 40 60
17.06.2018 16:00:00 12,4 1,7 8 4 S 40 48
17.06.2018 15:00:00 12,0 1,9 9 5 S 40 60
17.06.2018 14:00:00 11,2 1,7 8 4 S 40 60
17.06.2018 13:00:00 10,8 1,4 13 7 N 40 60
17.06.2018 12:00:00 10,0 2,1 24 13 N 30 60
17.06.2018 11:00:00 9,8 2,7 18 10 N 30 60
17.06.2018 10:00:00 9,8 6,0 11 6 N 30 60
17.06.2018 09:00:00 9,4 4,8 9 5 N 20 60
17.06.2018 08:00:00 8,4 4,8 8 4 N 20 42
17.06.2018 07:00:00 7,6 4,6 11 6 N 15 0
17.06.2018 06:00:00 6,9 6,3 9 5 N 15 0
17.06.2018 05:00:00 7,0 3,8 8 4 N 15 -
17.06.2018 04:00:00 7,2 2,5 0 0 N 30 -
17.06.2018 03:00:00 7,4 2,3 0 0 N 30 -
17.06.2018 02:00:00 7,2 2,5 15 8 SSW 30 -
17.06.2018 01:00:00 7,4 4,5 18 10 NNE 20 -
17.06.2018 00:00:00 7,4 6,0 15 8 SSW 30 -
16.06.2018 23:00:00 7,6 6,9 15 8 SW - -
16.06.2018 22:00:00 7,8 6,9 15 8 SW - 0
16.06.2018 21:00:00 8,8 6,1 18 10 SW 40 12
16.06.2018 20:00:00 11,2 5,3 13 7 SSW 40 60
16.06.2018 19:00:00 12,6 6,2 13 7 SW 40 60

tt = Température de l'air
td = dewpoint
ff = Vitesse du vent
dd = Direction du vent
vv = visibility
sd = Ensoleillement

stations d'obs. à proximité